sensor_id;sensor_type;location;lat;lon;timestamp;pressure;altitude;pressure_sealevel;temperature;humidity
33163;BME280;29282;45.656;11.302;2023-05-21T00:00:44;98195.91;;;17.82;64.39
33163;BME280;29282;45.656;11.302;2023-05-21T00:03:10;98186.53;;;17.83;64.21
33163;BME280;29282;45.656;11.302;2023-05-21T00:05:39;98187.69;;;17.82;64.25
33163;BME280;29282;45.656;11.302;2023-05-21T00:08:05;98188.13;;;17.84;64.41
33163;BME280;29282;45.656;11.302;2023-05-21T00:10:30;98182.19;;;17.82;64.35
33163;BME280;29282;45.656;11.302;2023-05-21T00:12:56;98180.56;;;17.81;64.55
33163;BME280;29282;45.656;11.302;2023-05-21T00:15:21;98178.66;;;17.81;64.37
33163;BME280;29282;45.656;11.302;2023-05-21T00:17:47;98176.72;;;17.82;64.17
33163;BME280;29282;45.656;11.302;2023-05-21T00:20:12;98178.66;;;17.81;64.37
33163;BME280;29282;45.656;11.302;2023-05-21T00:22:38;98177.84;;;17.81;64.17
33163;BME280;29282;45.656;11.302;2023-05-21T00:25:04;98173.19;;;17.81;64.34
33163;BME280;29282;45.656;11.302;2023-05-21T00:27:30;98168.81;;;17.80;64.49
33163;BME280;29282;45.656;11.302;2023-05-21T00:29:56;98164.97;;;17.81;64.14
33163;BME280;29282;45.656;11.302;2023-05-21T00:32:21;98165.75;;;17.82;64.29
33163;BME280;29282;45.656;11.302;2023-05-21T00:34:46;98157.84;;;17.80;64.44
33163;BME280;29282;45.656;11.302;2023-05-21T00:37:12;98157.06;;;17.80;64.36
33163;BME280;29282;45.656;11.302;2023-05-21T00:39:39;98158.66;;;17.81;64.36
33163;BME280;29282;45.656;11.302;2023-05-21T00:42:05;98143.34;;;17.80;64.41
33163;BME280;29282;45.656;11.302;2023-05-21T00:44:30;98149.63;;;17.80;64.14
33163;BME280;29282;45.656;11.302;2023-05-21T00:46:59;98147.69;;;17.81;64.36
33163;BME280;29282;45.656;11.302;2023-05-21T00:49:27;98148.50;;;17.81;64.10
33163;BME280;29282;45.656;11.302;2023-05-21T00:51:52;98148.50;;;17.81;64.14
33163;BME280;29282;45.656;11.302;2023-05-21T00:54:19;98144.16;;;17.80;64.28
33163;BME280;29282;45.656;11.302;2023-05-21T00:56:46;98144.94;;;17.81;64.05
33163;BME280;29282;45.656;11.302;2023-05-21T00:59:11;98141.41;;;17.80;64.13
33163;BME280;29282;45.656;11.302;2023-05-21T01:01:37;98145.28;;;17.79;64.30
33163;BME280;29282;45.656;11.302;2023-05-21T01:04:02;98143.34;;;17.80;64.22
33163;BME280;29282;45.656;11.302;2023-05-21T01:06:28;98141.41;;;17.80;64.29
33163;BME280;29282;45.656;11.302;2023-05-21T01:08:55;98138.66;;;17.80;64.28
33163;BME280;29282;45.656;11.302;2023-05-21T01:11:28;98141.41;;;17.80;64.25
33163;BME280;29282;45.656;11.302;2023-05-21T01:13:57;98143.34;;;17.80;64.03
33163;BME280;29282;45.656;11.302;2023-05-21T01:16:23;98138.66;;;17.80;64.00
33163;BME280;29282;45.656;11.302;2023-05-21T01:18:49;98137.88;;;17.80;64.03
33163;BME280;29282;45.656;11.302;2023-05-21T01:21:16;98132.38;;;17.80;64.09
33163;BME280;29282;45.656;11.302;2023-05-21T01:23:42;98141.41;;;17.80;64.27
33163;BME280;29282;45.656;11.302;2023-05-21T01:26:07;98140.28;;;17.81;63.90
33163;BME280;29282;45.656;11.302;2023-05-21T01:28:37;98141.41;;;17.80;64.17
33163;BME280;29282;45.656;11.302;2023-05-21T01:31:20;98133.19;;;17.80;64.17
33163;BME280;29282;45.656;11.302;2023-05-21T01:33:50;98137.88;;;17.80;64.06
33163;BME280;29282;45.656;11.302;2023-05-21T01:36:17;98137.06;;;17.79;64.04
33163;BME280;29282;45.656;11.302;2023-05-21T01:41:17;98131.59;;;17.79;64.30
33163;BME280;29282;45.656;11.302;2023-05-21T01:43:45;98133.53;;;17.79;64.03
33163;BME280;29282;45.656;11.302;2023-05-21T01:46:13;98143.34;;;17.80;64.05
33163;BME280;29282;45.656;11.302;2023-05-21T01:48:40;98139.81;;;17.79;64.02
33163;BME280;29282;45.656;11.302;2023-05-21T01:51:07;98137.06;;;17.79;64.01
33163;BME280;29282;45.656;11.302;2023-05-21T01:53:32;98142.56;;;17.79;63.95
33163;BME280;29282;45.656;11.302;2023-05-21T01:55:58;98135.47;;;17.78;63.90
33163;BME280;29282;45.656;11.302;2023-05-21T01:58:24;98135.47;;;17.78;64.01
33163;BME280;29282;45.656;11.302;2023-05-21T02:00:49;98130.00;;;17.78;64.01
33163;BME280;29282;45.656;11.302;2023-05-21T02:03:18;98133.53;;;17.79;63.94
33163;BME280;29282;45.656;11.302;2023-05-21T02:05:44;98130.00;;;17.78;64.05
33163;BME280;29282;45.656;11.302;2023-05-21T02:08:10;98124.50;;;17.78;64.26
33163;BME280;29282;45.656;11.302;2023-05-21T02:10:37;98124.50;;;17.78;64.26
33163;BME280;29282;45.656;11.302;2023-05-21T02:13:02;98124.50;;;17.78;63.91
33163;BME280;29282;45.656;11.302;2023-05-21T02:15:28;98123.69;;;17.78;63.95
33163;BME280;29282;45.656;11.302;2023-05-21T02:17:53;98122.88;;;17.77;63.90
33163;BME280;29282;45.656;11.302;2023-05-21T02:20:20;98119.03;;;17.78;63.92
33163;BME280;29282;45.656;11.302;2023-05-21T02:22:47;98118.22;;;17.78;64.09
33163;BME280;29282;45.656;11.302;2023-05-21T02:25:14;98122.88;;;17.77;64.13
33163;BME280;29282;45.656;11.302;2023-05-21T02:27:41;98115.81;;;17.76;63.90
33163;BME280;29282;45.656;11.302;2023-05-21T02:30:09;98120.16;;;17.77;64.04
33163;BME280;29282;45.656;11.302;2023-05-21T02:32:35;98118.22;;;17.78;64.04
33163;BME280;29282;45.656;11.302;2023-05-21T02:35:02;98110.00;;;17.78;64.03
33163;BME280;29282;45.656;11.302;2023-05-21T02:37:28;98108.06;;;17.78;63.95
33163;BME280;29282;45.656;11.302;2023-05-21T02:39:54;98114.66;;;17.77;63.95
33163;BME280;29282;45.656;11.302;2023-05-21T02:42:23;98102.91;;;17.77;64.04
33163;BME280;29282;45.656;11.302;2023-05-21T02:44:49;98105.66;;;17.77;63.86
33163;BME280;29282;45.656;11.302;2023-05-21T02:47:18;98108.06;;;17.78;64.00
33163;BME280;29282;45.656;11.302;2023-05-21T02:49:45;98104.50;;;17.78;63.82
33163;BME280;29282;45.656;11.302;2023-05-21T02:52:10;98102.13;;;17.76;63.82
33163;BME280;29282;45.656;11.302;2023-05-21T02:54:36;98100.16;;;17.77;63.73
33163;BME280;29282;45.656;11.302;2023-05-21T02:57:01;98100.16;;;17.77;64.06
33163;BME280;29282;45.656;11.302;2023-05-21T02:59:27;98093.91;;;17.76;63.91
33163;BME280;29282;45.656;11.302;2023-05-21T03:01:52;98085.69;;;17.76;63.94
33163;BME280;29282;45.656;11.302;2023-05-21T03:04:17;98091.94;;;17.77;63.75
33163;BME280;29282;45.656;11.302;2023-05-21T03:06:46;98103.72;;;17.77;63.72
33163;BME280;29282;45.656;11.302;2023-05-21T03:09:11;98096.63;;;17.76;64.06
33163;BME280;29282;45.656;11.302;2023-05-21T03:11:37;98091.16;;;17.76;63.90
33163;BME280;29282;45.656;11.302;2023-05-21T03:14:02;98085.69;;;17.76;63.84
33163;BME280;29282;45.656;11.302;2023-05-21T03:16:28;98091.16;;;17.76;63.94
33163;BME280;29282;45.656;11.302;2023-05-21T03:18:53;98089.22;;;17.77;64.02
33163;BME280;29282;45.656;11.302;2023-05-21T03:21:19;98088.41;;;17.76;63.96
33163;BME280;29282;45.656;11.302;2023-05-21T03:23:47;98090.31;;;17.76;63.99
33163;BME280;29282;45.656;11.302;2023-05-21T03:26:13;98079.38;;;17.76;63.76
33163;BME280;29282;45.656;11.302;2023-05-21T03:28:38;98080.19;;;17.76;63.79
33163;BME280;29282;45.656;11.302;2023-05-21T03:31:04;98077.44;;;17.76;63.83
33163;BME280;29282;45.656;11.302;2023-05-21T03:33:29;98089.53;;;17.75;63.76
33163;BME280;29282;45.656;11.302;2023-05-21T03:35:55;98082.94;;;17.76;63.67
33163;BME280;29282;45.656;11.302;2023-05-21T03:38:20;98077.44;;;17.76;63.90
33163;BME280;29282;45.656;11.302;2023-05-21T03:40:46;98081.31;;;17.75;63.96
33163;BME280;29282;45.656;11.302;2023-05-21T03:43:11;98075.81;;;17.75;63.76
33163;BME280;29282;45.656;11.302;2023-05-21T03:45:37;98075.03;;;17.75;63.96
33163;BME280;29282;45.656;11.302;2023-05-21T03:48:02;98081.31;;;17.75;63.78
33163;BME280;29282;45.656;11.302;2023-05-21T03:50:28;98077.78;;;17.75;63.72
33163;BME280;29282;45.656;11.302;2023-05-21T03:52:53;98082.09;;;17.76;63.85
33163;BME280;29282;45.656;11.302;2023-05-21T03:55:19;98090.31;;;17.76;63.89
33163;BME280;29282;45.656;11.302;2023-05-21T03:57:44;98082.94;;;17.76;63.83
33163;BME280;29282;45.656;11.302;2023-05-21T04:00:10;98082.09;;;17.76;63.92
33163;BME280;29282;45.656;11.302;2023-05-21T04:02:35;98092.28;;;17.75;63.81
33163;BME280;29282;45.656;11.302;2023-05-21T04:05:01;98080.50;;;17.75;63.77
33163;BME280;29282;45.656;11.302;2023-05-21T04:07:27;98095.00;;;17.75;63.64
33163;BME280;29282;45.656;11.302;2023-05-21T04:09:54;98097.44;;;17.77;63.71
33163;BME280;29282;45.656;11.302;2023-05-21T04:12:20;98097.75;;;17.75;63.76
33163;BME280;29282;45.656;11.302;2023-05-21T04:14:45;98097.75;;;17.75;63.61
33163;BME280;29282;45.656;11.302;2023-05-21T04:17:11;98096.94;;;17.75;63.72
33163;BME280;29282;45.656;11.302;2023-05-21T04:19:39;98110.34;;;17.76;63.60
33163;BME280;29282;45.656;11.302;2023-05-21T04:22:06;98097.75;;;17.75;63.63
33163;BME280;29282;45.656;11.302;2023-05-21T04:24:31;98105.16;;;17.75;63.64
33163;BME280;29282;45.656;11.302;2023-05-21T04:26:57;98103.22;;;17.75;63.71
33163;BME280;29282;45.656;11.302;2023-05-21T04:29:26;98104.84;;;17.76;63.68
33163;BME280;29282;45.656;11.302;2023-05-21T04:31:51;98096.94;;;17.75;63.73
33163;BME280;29282;45.656;11.302;2023-05-21T04:34:17;98098.88;;;17.74;63.85
33163;BME280;29282;45.656;11.302;2023-05-21T04:36:43;98098.88;;;17.74;63.62
33163;BME280;29282;45.656;11.302;2023-05-21T04:39:10;98101.28;;;17.76;63.50
33163;BME280;29282;45.656;11.302;2023-05-21T04:41:37;98100.50;;;17.75;63.82
33163;BME280;29282;45.656;11.302;2023-05-21T04:44:04;98098.88;;;17.74;63.68
33163;BME280;29282;45.656;11.302;2023-05-21T04:46:29;98101.59;;;17.74;63.58
33163;BME280;29282;45.656;11.302;2023-05-21T04:48:56;98100.81;;;17.74;63.56
33163;BME280;29282;45.656;11.302;2023-05-21T04:51:22;98102.44;;;17.75;63.58
33163;BME280;29282;45.656;11.302;2023-05-21T04:53:49;98106.28;;;17.74;63.61
33163;BME280;29282;45.656;11.302;2023-05-21T04:56:17;98102.75;;;17.73;63.80
33163;BME280;29282;45.656;11.302;2023-05-21T04:58:43;98104.34;;;17.74;63.51
33163;BME280;29282;45.656;11.302;2023-05-21T05:01:09;98104.34;;;17.74;63.75
33163;BME280;29282;45.656;11.302;2023-05-21T05:03:37;98104.34;;;17.74;63.50
33163;BME280;29282;45.656;11.302;2023-05-21T05:06:02;98095.31;;;17.74;63.68
33163;BME280;29282;45.656;11.302;2023-05-21T05:08:28;98102.75;;;17.73;63.71
33163;BME280;29282;45.656;11.302;2023-05-21T05:10:54;98103.53;;;17.74;63.51
33163;BME280;29282;45.656;11.302;2023-05-21T05:13:19;98098.06;;;17.74;63.61
33163;BME280;29282;45.656;11.302;2023-05-21T05:15:45;98100.00;;;17.73;63.63
33163;BME280;29282;45.656;11.302;2023-05-21T05:18:11;98097.28;;;17.73;63.55
33163;BME280;29282;45.656;11.302;2023-05-21T05:20:36;98095.69;;;17.72;63.45
33163;BME280;29282;45.656;11.302;2023-05-21T05:23:02;98100.00;;;17.73;63.56
33163;BME280;29282;45.656;11.302;2023-05-21T05:25:27;98105.50;;;17.73;63.74
33163;BME280;29282;45.656;11.302;2023-05-21T05:27:52;98102.75;;;17.73;63.41
33163;BME280;29282;45.656;11.302;2023-05-21T05:30:19;98109.03;;;17.74;63.36
33163;BME280;29282;45.656;11.302;2023-05-21T05:32:44;98105.50;;;17.73;63.58
33163;BME280;29282;45.656;11.302;2023-05-21T05:35:11;98108.22;;;17.73;63.70
33163;BME280;29282;45.656;11.302;2023-05-21T05:37:37;98098.41;;;17.72;63.69
33163;BME280;29282;45.656;11.302;2023-05-21T05:40:03;98100.81;;;17.74;63.63
33163;BME280;29282;45.656;11.302;2023-05-21T05:42:29;98100.00;;;17.73;63.58
33163;BME280;29282;45.656;11.302;2023-05-21T05:44:55;98095.31;;;17.74;63.55
33163;BME280;29282;45.656;11.302;2023-05-21T05:47:20;98102.75;;;17.73;63.42
33163;BME280;29282;45.656;11.302;2023-05-21T05:49:46;98107.09;;;17.74;63.51
33163;BME280;29282;45.656;11.302;2023-05-21T05:52:12;98108.22;;;17.73;63.55
33163;BME280;29282;45.656;11.302;2023-05-21T05:54:37;98105.50;;;17.73;63.58
33163;BME280;29282;45.656;11.302;2023-05-21T05:57:03;98117.25;;;17.74;63.62
33163;BME280;29282;45.656;11.302;2023-05-21T05:59:28;98117.25;;;17.74;63.48
33163;BME280;29282;45.656;11.302;2023-05-21T06:01:54;98113.72;;;17.73;63.53
33163;BME280;29282;45.656;11.302;2023-05-21T06:04:19;98115.31;;;17.74;63.56
33163;BME280;29282;45.656;11.302;2023-05-21T06:06:44;98103.91;;;17.72;63.42
33163;BME280;29282;45.656;11.302;2023-05-21T06:09:11;98104.69;;;17.73;63.52
33163;BME280;29282;45.656;11.302;2023-05-21T06:11:37;98111.75;;;17.74;63.32
33163;BME280;29282;45.656;11.302;2023-05-21T06:14:02;98100.00;;;17.73;63.53
33163;BME280;29282;45.656;11.302;2023-05-21T06:16:28;98101.94;;;17.73;63.57
33163;BME280;29282;45.656;11.302;2023-05-21T06:18:56;98098.41;;;17.72;63.47
33163;BME280;29282;45.656;11.302;2023-05-21T06:21:21;98101.94;;;17.73;63.39
33163;BME280;29282;45.656;11.302;2023-05-21T06:23:46;98098.41;;;17.72;63.48
33163;BME280;29282;45.656;11.302;2023-05-21T06:26:12;98100.00;;;17.73;63.50
33163;BME280;29282;45.656;11.302;2023-05-21T06:28:37;98097.28;;;17.73;63.45
33163;BME280;29282;45.656;11.302;2023-05-21T06:31:03;98101.94;;;17.73;63.50
33163;BME280;29282;45.656;11.302;2023-05-21T06:33:28;98098.06;;;17.74;63.48
33163;BME280;29282;45.656;11.302;2023-05-21T06:35:54;98101.94;;;17.73;63.40
33163;BME280;29282;45.656;11.302;2023-05-21T06:38:19;98099.22;;;17.73;63.71
33163;BME280;29282;45.656;11.302;2023-05-21T06:40:45;98105.50;;;17.73;63.42
33163;BME280;29282;45.656;11.302;2023-05-21T06:43:12;98107.59;;;17.76;63.28
33163;BME280;29282;45.656;11.302;2023-05-21T06:45:38;98106.94;;;17.79;63.34
33163;BME280;29282;45.656;11.302;2023-05-21T06:48:04;98108.53;;;17.80;63.33
33163;BME280;29282;45.656;11.302;2023-05-21T06:50:29;98111.75;;;17.82;63.35
33163;BME280;29282;45.656;11.302;2023-05-21T06:52:55;98114.13;;;17.84;63.17
33163;BME280;29282;45.656;11.302;2023-05-21T06:55:21;98118.50;;;17.85;63.44
33163;BME280;29282;45.656;11.302;2023-05-21T06:57:46;98118.16;;;17.87;63.25
33163;BME280;29282;45.656;11.302;2023-05-21T07:00:12;98115.09;;;17.88;63.22
33163;BME280;29282;45.656;11.302;2023-05-21T07:02:38;98117.47;;;17.90;63.31
33163;BME280;29282;45.656;11.302;2023-05-21T07:05:04;98116.34;;;17.91;63.35
33163;BME280;29282;45.656;11.302;2023-05-21T07:07:29;98113.59;;;17.91;63.17
33163;BME280;29282;45.656;11.302;2023-05-21T07:09:54;98110.84;;;17.91;63.36
33163;BME280;29282;45.656;11.302;2023-05-21T07:12:20;98112.47;;;17.92;63.32
33163;BME280;29282;45.656;11.302;2023-05-21T07:14:45;98104.56;;;17.90;63.15
33163;BME280;29282;45.656;11.302;2023-05-21T07:17:11;98118.75;;;17.92;63.15
33163;BME280;29282;45.656;11.302;2023-05-21T07:19:36;98110.19;;;17.94;63.33
33163;BME280;29282;45.656;11.302;2023-05-21T07:22:03;98108.25;;;17.94;63.33
33163;BME280;29282;45.656;11.302;2023-05-21T07:24:29;98104.72;;;17.94;63.30
33163;BME280;29282;45.656;11.302;2023-05-21T07:26:54;98100.84;;;17.95;63.22
33163;BME280;29282;45.656;11.302;2023-05-21T07:29:20;98103.59;;;17.95;63.36
33163;BME280;29282;45.656;11.302;2023-05-21T07:31:45;98102.44;;;17.96;63.22
33163;BME280;29282;45.656;11.302;2023-05-21T07:34:10;98107.56;;;17.97;63.40
33163;BME280;29282;45.656;11.302;2023-05-21T07:36:36;98111.13;;;17.98;63.31
33163;BME280;29282;45.656;11.302;2023-05-21T07:39:01;98111.13;;;17.98;63.19
33163;BME280;29282;45.656;11.302;2023-05-21T07:41:27;98114.69;;;17.98;63.25
33163;BME280;29282;45.656;11.302;2023-05-21T07:43:52;98108.84;;;18.00;63.24
33163;BME280;29282;45.656;11.302;2023-05-21T07:46:18;98113.19;;;18.01;63.30
33163;BME280;29282;45.656;11.302;2023-05-21T07:48:43;98115.94;;;18.01;63.11
33163;BME280;29282;45.656;11.302;2023-05-21T07:51:09;98107.69;;;18.01;63.29
33163;BME280;29282;45.656;11.302;2023-05-21T07:53:35;98105.44;;;18.03;63.13
33163;BME280;29282;45.656;11.302;2023-05-21T07:56:01;98094.81;;;18.01;63.32
33163;BME280;29282;45.656;11.302;2023-05-21T07:58:26;98103.50;;;18.03;63.21
33163;BME280;29282;45.656;11.302;2023-05-21T08:00:51;98101.56;;;18.04;63.13
33163;BME280;29282;45.656;11.302;2023-05-21T08:03:17;98101.22;;;18.05;63.35
33163;BME280;29282;45.656;11.302;2023-05-21T08:05:44;98099.28;;;18.06;63.27
33163;BME280;29282;45.656;11.302;2023-05-21T08:08:16;98098.13;;;18.07;63.26
33163;BME280;29282;45.656;11.302;2023-05-21T08:10:43;98103.63;;;18.07;63.37
33163;BME280;29282;45.656;11.302;2023-05-21T08:13:10;98095.06;;;18.08;63.51
33163;BME280;29282;45.656;11.302;2023-05-21T08:15:35;98102.50;;;18.08;63.39
33163;BME280;29282;45.656;11.302;2023-05-21T08:18:01;98103.31;;;18.08;63.42
33163;BME280;29282;45.656;11.302;2023-05-21T08:20:26;98099.75;;;18.08;63.61
33163;BME280;29282;45.656;11.302;2023-05-21T08:22:53;98102.50;;;18.08;63.47
33163;BME280;29282;45.656;11.302;2023-05-21T08:25:19;98098.13;;;18.07;63.61
33163;BME280;29282;45.656;11.302;2023-05-21T08:27:44;98101.69;;;18.07;63.63
33163;BME280;29282;45.656;11.302;2023-05-21T08:30:10;98100.88;;;18.07;63.40
33163;BME280;29282;45.656;11.302;2023-05-21T08:32:36;98106.84;;;18.09;63.50
33163;BME280;29282;45.656;11.302;2023-05-21T08:35:02;98098.13;;;18.07;63.52
33163;BME280;29282;45.656;11.302;2023-05-21T08:37:27;98103.63;;;18.07;63.30
33163;BME280;29282;45.656;11.302;2023-05-21T08:39:53;98105.25;;;18.08;63.45
33163;BME280;29282;45.656;11.302;2023-05-21T08:42:38;98099.75;;;18.08;63.59
33163;BME280;29282;45.656;11.302;2023-05-21T08:45:05;98097.03;;;18.08;63.57
33163;BME280;29282;45.656;11.302;2023-05-21T08:47:33;98103.31;;;18.08;63.46
33163;BME280;29282;45.656;11.302;2023-05-21T08:49:59;98102.16;;;18.10;63.60
33163;BME280;29282;45.656;11.302;2023-05-21T08:52:25;98099.75;;;18.08;63.58
33163;BME280;29282;45.656;11.302;2023-05-21T08:54:52;98102.16;;;18.10;63.30
33163;BME280;29282;45.656;11.302;2023-05-21T08:57:19;98095.88;;;18.09;63.54
33163;BME280;29282;45.656;11.302;2023-05-21T08:59:45;98099.41;;;18.10;63.33
33163;BME280;29282;45.656;11.302;2023-05-21T09:02:12;98106.84;;;18.09;63.15
33163;BME280;29282;45.656;11.302;2023-05-21T09:04:41;98097.16;;;18.12;63.07
33163;BME280;29282;45.656;11.302;2023-05-21T09:07:08;98103.44;;;18.12;63.13
33163;BME280;29282;45.656;11.302;2023-05-21T09:09:51;98094.06;;;18.13;62.96
33163;BME280;29282;45.656;11.302;2023-05-21T09:12:18;98099.34;;;18.18;62.40
33163;BME280;29282;45.656;11.302;2023-05-21T09:14:46;98102.19;;;18.67;60.00
33163;BME280;29282;45.656;11.302;2023-05-21T09:17:14;98104.47;;;18.53;60.18
33163;BME280;29282;45.656;11.302;2023-05-21T09:20:08;98100.31;;;18.47;59.92
33163;BME280;29282;45.656;11.302;2023-05-21T09:22:46;98097.34;;;18.85;58.06
33163;BME280;29282;45.656;11.302;2023-05-21T09:25:21;98102.19;;;18.55;59.02
33163;BME280;29282;45.656;11.302;2023-05-21T09:27:47;98098.72;;;19.28;54.54
33163;BME280;29282;45.656;11.302;2023-05-21T09:30:14;98090.81;;;19.39;53.44
33163;BME280;29282;45.656;11.302;2023-05-21T09:32:43;98095.38;;;19.47;52.09
33163;BME280;29282;45.656;11.302;2023-05-21T09:35:10;98101.72;;;19.88;50.64
33163;BME280;29282;45.656;11.302;2023-05-21T09:37:43;98095.81;;;19.74;48.97
33163;BME280;29282;45.656;11.302;2023-05-21T09:40:19;98097.03;;;19.88;47.65
33163;BME280;29282;45.656;11.302;2023-05-21T09:42:54;98094.31;;;20.60;46.57
33163;BME280;29282;45.656;11.302;2023-05-21T09:45:22;98093.75;;;19.70;49.77
33163;BME280;29282;45.656;11.302;2023-05-21T09:47:49;98089.91;;;19.35;51.33
33163;BME280;29282;45.656;11.302;2023-05-21T09:50:23;98094.97;;;19.20;52.20
33163;BME280;29282;45.656;11.302;2023-05-21T09:52:50;98100.31;;;19.17;52.61
33163;BME280;29282;45.656;11.302;2023-05-21T09:55:18;98104.41;;;19.72;50.23
33163;BME280;29282;45.656;11.302;2023-05-21T09:57:47;98101.63;;;19.60;49.49
33163;BME280;29282;45.656;11.302;2023-05-21T10:00:18;98092.59;;;19.71;49.23
33163;BME280;29282;45.656;11.302;2023-05-21T10:02:49;98091.72;;;19.43;50.22
33163;BME280;29282;45.656;11.302;2023-05-21T10:05:19;98105.13;;;19.20;51.05
33163;BME280;29282;45.656;11.302;2023-05-21T10:07:51;98102.03;;;19.09;51.56
33163;BME280;29282;45.656;11.302;2023-05-21T10:10:19;98101.56;;;19.19;51.12
33163;BME280;29282;45.656;11.302;2023-05-21T10:12:51;98110.28;;;19.34;50.78
33163;BME280;29282;45.656;11.302;2023-05-21T10:15:21;98100.00;;;19.31;49.66
33163;BME280;29282;45.656;11.302;2023-05-21T10:17:48;98094.13;;;19.32;48.94
33163;BME280;29282;45.656;11.302;2023-05-21T10:20:15;98092.31;;;19.89;47.73
33163;BME280;29282;45.656;11.302;2023-05-21T10:22:40;98090.59;;;19.44;49.34
33163;BME280;29282;45.656;11.302;2023-05-21T10:25:07;98082.56;;;19.27;50.62
33163;BME280;29282;45.656;11.302;2023-05-21T10:27:34;98094.16;;;19.85;48.50
33163;BME280;29282;45.656;11.302;2023-05-21T10:30:00;98095.34;;;19.59;49.36
33163;BME280;29282;45.656;11.302;2023-05-21T10:32:26;98082.81;;;19.34;50.57
33163;BME280;29282;45.656;11.302;2023-05-21T10:34:52;98080.97;;;19.25;50.58
33163;BME280;29282;45.656;11.302;2023-05-21T10:37:19;98083.78;;;19.66;48.93
33163;BME280;29282;45.656;11.302;2023-05-21T10:39:47;98075.44;;;19.50;49.91
33163;BME280;29282;45.656;11.302;2023-05-21T10:53:40;98091.28;;;19.16;50.83
33163;BME280;29282;45.656;11.302;2023-05-21T10:56:23;98085.34;;;19.02;50.68
33163;BME280;29282;45.656;11.302;2023-05-21T11:01:16;98071.78;;;19.58;48.31
33163;BME280;29282;45.656;11.302;2023-05-21T11:03:45;98070.56;;;19.31;50.03
33163;BME280;29282;45.656;11.302;2023-05-21T11:06:10;98071.16;;;19.12;51.13
33163;BME280;29282;45.656;11.302;2023-05-21T11:08:46;98061.44;;;19.02;51.48
33163;BME280;29282;45.656;11.302;2023-05-21T11:11:12;98073.19;;;19.03;50.84
33163;BME280;29282;45.656;11.302;2023-05-21T11:13:46;98078.13;;;19.10;51.38
33163;BME280;29282;45.656;11.302;2023-05-21T11:16:14;98071.84;;;19.09;49.51
33163;BME280;29282;45.656;11.302;2023-05-21T11:21:08;98076.16;;;19.35;48.80
33163;BME280;29282;45.656;11.302;2023-05-21T11:24:01;98079.16;;;19.17;50.11
33163;BME280;29282;45.656;11.302;2023-05-21T11:29:16;98054.56;;;19.09;50.03
33163;BME280;29282;45.656;11.302;2023-05-21T11:31:57;98057.19;;;19.05;52.28
33163;BME280;29282;45.656;11.302;2023-05-21T11:34:25;98061.78;;;19.01;51.33
33163;BME280;29282;45.656;11.302;2023-05-21T11:39:58;98056.72;;;19.03;51.94
33163;BME280;29282;45.656;11.302;2023-05-21T11:42:39;98056.03;;;19.06;51.44
33163;BME280;29282;45.656;11.302;2023-05-21T11:45:07;98035.13;;;19.01;51.91
33163;BME280;29282;45.656;11.302;2023-05-21T11:47:32;98047.47;;;19.08;51.91
33163;BME280;29282;45.656;11.302;2023-05-21T11:50:00;98040.56;;;19.26;50.92
33163;BME280;29282;45.656;11.302;2023-05-21T11:52:28;98054.78;;;19.16;51.80
33163;BME280;29282;45.656;11.302;2023-05-21T11:54:54;98051.56;;;19.14;51.91
33163;BME280;29282;45.656;11.302;2023-05-21T11:57:22;98049.50;;;19.23;51.02
33163;BME280;29282;45.656;11.302;2023-05-21T11:59:48;98046.63;;;19.32;50.60
33163;BME280;29282;45.656;11.302;2023-05-21T12:02:19;98037.72;;;19.22;51.02
33163;BME280;29282;45.656;11.302;2023-05-21T12:04:49;98029.59;;;19.14;51.22
33163;BME280;29282;45.656;11.302;2023-05-21T12:07:18;98034.19;;;19.10;51.86
33163;BME280;29282;45.656;11.302;2023-05-21T12:09:48;98042.91;;;19.12;51.44
33163;BME280;29282;45.656;11.302;2023-05-21T12:12:16;98049.66;;;19.14;51.23
33163;BME280;29282;45.656;11.302;2023-05-21T12:14:43;98042.63;;;19.41;50.72
33163;BME280;29282;45.656;11.302;2023-05-21T12:17:10;98042.53;;;19.25;51.28
33163;BME280;29282;45.656;11.302;2023-05-21T12:19:38;98042.91;;;19.12;51.93
33163;BME280;29282;45.656;11.302;2023-05-21T12:22:04;98026.84;;;19.26;51.13
33163;BME280;29282;45.656;11.302;2023-05-21T12:24:31;98033.97;;;19.27;50.76
33163;BME280;29282;45.656;11.302;2023-05-21T12:27:00;98036.47;;;19.20;51.72
33163;BME280;29282;45.656;11.302;2023-05-21T12:29:27;98036.53;;;19.48;49.71
33163;BME280;29282;45.656;11.302;2023-05-21T12:31:57;98032.47;;;19.70;48.22
33163;BME280;29282;45.656;11.302;2023-05-21T12:37:25;98026.94;;;19.30;50.84
33163;BME280;29282;45.656;11.302;2023-05-21T12:39:56;98022.16;;;19.27;51.22
33163;BME280;29282;45.656;11.302;2023-05-21T12:42:24;98024.88;;;19.27;51.47
33163;BME280;29282;45.656;11.302;2023-05-21T12:44:52;98026.41;;;19.24;51.79
33163;BME280;29282;45.656;11.302;2023-05-21T12:47:18;98031.78;;;19.20;51.87
33163;BME280;29282;45.656;11.302;2023-05-21T12:49:44;98042.53;;;19.25;51.49
33163;BME280;29282;45.656;11.302;2023-05-21T12:52:13;98052.19;;;20.44;46.32
33163;BME280;29282;45.656;11.302;2023-05-21T12:54:44;98026.13;;;19.82;48.85
33163;BME280;29282;45.656;11.302;2023-05-21T12:57:21;98023.81;;;19.43;50.90
33163;BME280;29282;45.656;11.302;2023-05-21T12:59:55;98025.66;;;19.39;49.97
33163;BME280;29282;45.656;11.302;2023-05-21T13:02:28;98019.75;;;19.78;48.41
33163;BME280;29282;45.656;11.302;2023-05-21T13:04:56;98025.28;;;19.53;49.54
33163;BME280;29282;45.656;11.302;2023-05-21T13:07:22;98031.16;;;19.52;50.27
33163;BME280;29282;45.656;11.302;2023-05-21T13:09:48;98026.53;;;19.56;50.00
33163;BME280;29282;45.656;11.302;2023-05-21T13:12:14;98028.50;;;19.55;50.34
33163;BME280;29282;45.656;11.302;2023-05-21T13:14:39;98028.97;;;20.29;47.47
33163;BME280;29282;45.656;11.302;2023-05-21T13:17:05;98024.34;;;20.02;48.71